sensor_id;sensor_type;location;lat;lon;timestamp;P1;durP1;ratioP1;P2;durP2;ratioP2
44248;SDS011;29923;48.718;9.272;2023-06-14T00:01:26;7.57;;;3.78;;
44248;SDS011;29923;48.718;9.272;2023-06-14T00:03:52;12.88;;;4.10;;
44248;SDS011;29923;48.718;9.272;2023-06-14T00:06:19;8.40;;;3.83;;
44248;SDS011;29923;48.718;9.272;2023-06-14T00:08:44;6.00;;;4.00;;
44248;SDS011;29923;48.718;9.272;2023-06-14T00:11:10;9.25;;;3.97;;
44248;SDS011;29923;48.718;9.272;2023-06-14T00:13:35;6.93;;;3.92;;
44248;SDS011;29923;48.718;9.272;2023-06-14T00:16:00;9.77;;;4.00;;
44248;SDS011;29923;48.718;9.272;2023-06-14T00:18:25;6.95;;;3.85;;
44248;SDS011;29923;48.718;9.272;2023-06-14T00:20:54;10.30;;;3.53;;
44248;SDS011;29923;48.718;9.272;2023-06-14T00:23:20;8.60;;;3.67;;
44248;SDS011;29923;48.718;9.272;2023-06-14T00:25:46;7.95;;;3.47;;
44248;SDS011;29923;48.718;9.272;2023-06-14T00:28:11;6.70;;;3.30;;
44248;SDS011;29923;48.718;9.272;2023-06-14T00:30:37;8.73;;;3.78;;
44248;SDS011;29923;48.718;9.272;2023-06-14T00:33:02;8.38;;;3.60;;
44248;SDS011;29923;48.718;9.272;2023-06-14T00:35:28;9.88;;;3.50;;
44248;SDS011;29923;48.718;9.272;2023-06-14T00:37:53;10.38;;;3.60;;
44248;SDS011;29923;48.718;9.272;2023-06-14T00:40:20;6.97;;;4.10;;
44248;SDS011;29923;48.718;9.272;2023-06-14T00:42:46;8.65;;;3.80;;
44248;SDS011;29923;48.718;9.272;2023-06-14T00:45:12;13.57;;;4.07;;
44248;SDS011;29923;48.718;9.272;2023-06-14T00:47:37;13.57;;;4.00;;
44248;SDS011;29923;48.718;9.272;2023-06-14T00:50:05;10.27;;;4.10;;
44248;SDS011;29923;48.718;9.272;2023-06-14T00:52:31;10.73;;;4.32;;
44248;SDS011;29923;48.718;9.272;2023-06-14T00:54:57;8.60;;;4.30;;
44248;SDS011;29923;48.718;9.272;2023-06-14T00:57:22;12.25;;;4.85;;
44248;SDS011;29923;48.718;9.272;2023-06-14T00:59:48;8.45;;;4.03;;
44248;SDS011;29923;48.718;9.272;2023-06-14T01:02:14;11.65;;;4.20;;
44248;SDS011;29923;48.718;9.272;2023-06-14T01:04:41;6.18;;;4.20;;
44248;SDS011;29923;48.718;9.272;2023-06-14T01:07:11;7.32;;;3.70;;
44248;SDS011;29923;48.718;9.272;2023-06-14T01:09:58;7.65;;;4.18;;
44248;SDS011;29923;48.718;9.272;2023-06-14T01:12:30;4.93;;;3.60;;
44248;SDS011;29923;48.718;9.272;2023-06-14T01:14:59;7.22;;;4.20;;
44248;SDS011;29923;48.718;9.272;2023-06-14T01:17:25;13.05;;;4.25;;
44248;SDS011;29923;48.718;9.272;2023-06-14T01:19:52;7.28;;;4.18;;
44248;SDS011;29923;48.718;9.272;2023-06-14T01:22:23;5.93;;;3.95;;
44248;SDS011;29923;48.718;9.272;2023-06-14T01:24:50;6.57;;;4.03;;
44248;SDS011;29923;48.718;9.272;2023-06-14T01:27:20;8.45;;;4.20;;
44248;SDS011;29923;48.718;9.272;2023-06-14T01:29:49;8.02;;;4.07;;
44248;SDS011;29923;48.718;9.272;2023-06-14T01:32:21;8.97;;;4.13;;
44248;SDS011;29923;48.718;9.272;2023-06-14T01:34:51;10.38;;;4.47;;
44248;SDS011;29923;48.718;9.272;2023-06-14T01:37:16;9.40;;;3.63;;
44248;SDS011;29923;48.718;9.272;2023-06-14T01:39:43;9.98;;;4.00;;
44248;SDS011;29923;48.718;9.272;2023-06-14T01:42:09;10.95;;;4.10;;
44248;SDS011;29923;48.718;9.272;2023-06-14T01:44:35;11.95;;;4.20;;
44248;SDS011;29923;48.718;9.272;2023-06-14T01:47:01;10.13;;;4.10;;
44248;SDS011;29923;48.718;9.272;2023-06-14T01:49:27;6.90;;;3.55;;
44248;SDS011;29923;48.718;9.272;2023-06-14T01:51:52;11.63;;;4.00;;
44248;SDS011;29923;48.718;9.272;2023-06-14T01:54:17;8.90;;;4.10;;
44248;SDS011;29923;48.718;9.272;2023-06-14T01:56:43;8.85;;;4.13;;
44248;SDS011;29923;48.718;9.272;2023-06-14T01:59:08;5.93;;;3.70;;
44248;SDS011;29923;48.718;9.272;2023-06-14T02:01:33;9.85;;;3.67;;
44248;SDS011;29923;48.718;9.272;2023-06-14T02:03:59;12.95;;;3.75;;
44248;SDS011;29923;48.718;9.272;2023-06-14T02:06:26;9.70;;;3.83;;
44248;SDS011;29923;48.718;9.272;2023-06-14T02:08:51;6.65;;;3.67;;
44248;SDS011;29923;48.718;9.272;2023-06-14T02:11:17;6.13;;;3.85;;
44248;SDS011;29923;48.718;9.272;2023-06-14T02:13:42;7.60;;;4.55;;
44248;SDS011;29923;48.718;9.272;2023-06-14T02:16:07;8.90;;;4.30;;
44248;SDS011;29923;48.718;9.272;2023-06-14T02:18:33;8.10;;;4.38;;
44248;SDS011;29923;48.718;9.272;2023-06-14T02:20:58;9.40;;;4.35;;
44248;SDS011;29923;48.718;9.272;2023-06-14T02:23:23;12.25;;;5.03;;
44248;SDS011;29923;48.718;9.272;2023-06-14T02:25:49;7.63;;;4.13;;
44248;SDS011;29923;48.718;9.272;2023-06-14T02:28:15;7.20;;;4.60;;
44248;SDS011;29923;48.718;9.272;2023-06-14T02:30:40;8.90;;;5.15;;
44248;SDS011;29923;48.718;9.272;2023-06-14T02:33:05;11.30;;;4.93;;
44248;SDS011;29923;48.718;9.272;2023-06-14T02:35:31;10.05;;;5.40;;
44248;SDS011;29923;48.718;9.272;2023-06-14T02:37:56;12.10;;;4.80;;
44248;SDS011;29923;48.718;9.272;2023-06-14T02:40:22;5.72;;;3.83;;
44248;SDS011;29923;48.718;9.272;2023-06-14T02:42:47;9.93;;;5.40;;
44248;SDS011;29923;48.718;9.272;2023-06-14T02:45:13;12.02;;;4.80;;
44248;SDS011;29923;48.718;9.272;2023-06-14T02:47:38;11.45;;;4.75;;
44248;SDS011;29923;48.718;9.272;2023-06-14T02:50:03;7.70;;;4.63;;
44248;SDS011;29923;48.718;9.272;2023-06-14T02:52:29;9.45;;;5.20;;
44248;SDS011;29923;48.718;9.272;2023-06-14T02:54:54;16.52;;;5.78;;
44248;SDS011;29923;48.718;9.272;2023-06-14T02:57:20;8.93;;;4.78;;
44248;SDS011;29923;48.718;9.272;2023-06-14T02:59:46;12.95;;;4.75;;
44248;SDS011;29923;48.718;9.272;2023-06-14T03:02:12;13.60;;;5.45;;
44248;SDS011;29923;48.718;9.272;2023-06-14T03:04:37;9.60;;;5.57;;
44248;SDS011;29923;48.718;9.272;2023-06-14T03:07:03;9.93;;;5.18;;
44248;SDS011;29923;48.718;9.272;2023-06-14T03:09:34;9.80;;;5.38;;
44248;SDS011;29923;48.718;9.272;2023-06-14T03:12:01;15.77;;;5.32;;
44248;SDS011;29923;48.718;9.272;2023-06-14T03:14:28;10.18;;;5.30;;
44248;SDS011;29923;48.718;9.272;2023-06-14T03:16:54;13.77;;;5.35;;
44248;SDS011;29923;48.718;9.272;2023-06-14T03:19:21;9.68;;;5.13;;
44248;SDS011;29923;48.718;9.272;2023-06-14T03:21:47;10.05;;;4.97;;
44248;SDS011;29923;48.718;9.272;2023-06-14T03:24:12;13.88;;;4.90;;
44248;SDS011;29923;48.718;9.272;2023-06-14T03:26:38;11.55;;;5.03;;
44248;SDS011;29923;48.718;9.272;2023-06-14T03:29:03;11.52;;;5.47;;
44248;SDS011;29923;48.718;9.272;2023-06-14T03:31:29;11.38;;;5.88;;
44248;SDS011;29923;48.718;9.272;2023-06-14T03:33:58;10.82;;;5.13;;
44248;SDS011;29923;48.718;9.272;2023-06-14T03:36:23;12.23;;;5.32;;
44248;SDS011;29923;48.718;9.272;2023-06-14T03:38:50;10.23;;;5.68;;
44248;SDS011;29923;48.718;9.272;2023-06-14T03:41:15;11.95;;;5.70;;
44248;SDS011;29923;48.718;9.272;2023-06-14T03:43:40;9.80;;;5.60;;
44248;SDS011;29923;48.718;9.272;2023-06-14T03:46:06;12.80;;;5.57;;
44248;SDS011;29923;48.718;9.272;2023-06-14T03:48:34;9.10;;;5.72;;
44248;SDS011;29923;48.718;9.272;2023-06-14T03:50:59;12.40;;;5.38;;
44248;SDS011;29923;48.718;9.272;2023-06-14T03:53:25;13.20;;;6.95;;
44248;SDS011;29923;48.718;9.272;2023-06-14T03:55:52;14.88;;;6.70;;
44248;SDS011;29923;48.718;9.272;2023-06-14T03:58:18;14.10;;;6.35;;
44248;SDS011;29923;48.718;9.272;2023-06-14T04:00:44;11.93;;;6.40;;
44248;SDS011;29923;48.718;9.272;2023-06-14T04:03:10;12.02;;;6.60;;
44248;SDS011;29923;48.718;9.272;2023-06-14T04:05:37;21.13;;;6.53;;
44248;SDS011;29923;48.718;9.272;2023-06-14T04:08:02;15.77;;;6.53;;
44248;SDS011;29923;48.718;9.272;2023-06-14T04:10:27;12.20;;;6.90;;
44248;SDS011;29923;48.718;9.272;2023-06-14T04:12:53;13.68;;;7.07;;
44248;SDS011;29923;48.718;9.272;2023-06-14T04:15:18;17.13;;;6.65;;
44248;SDS011;29923;48.718;9.272;2023-06-14T04:17:44;11.40;;;6.35;;
44248;SDS011;29923;48.718;9.272;2023-06-14T04:20:09;12.65;;;6.88;;
44248;SDS011;29923;48.718;9.272;2023-06-14T04:22:35;17.23;;;6.78;;
44248;SDS011;29923;48.718;9.272;2023-06-14T04:25:01;13.68;;;6.88;;
44248;SDS011;29923;48.718;9.272;2023-06-14T04:27:27;14.68;;;7.40;;
44248;SDS011;29923;48.718;9.272;2023-06-14T04:29:53;14.38;;;7.47;;
44248;SDS011;29923;48.718;9.272;2023-06-14T04:32:21;14.52;;;7.40;;
44248;SDS011;29923;48.718;9.272;2023-06-14T04:34:47;11.38;;;6.60;;
44248;SDS011;29923;48.718;9.272;2023-06-14T04:37:12;11.52;;;6.78;;
44248;SDS011;29923;48.718;9.272;2023-06-14T04:39:38;9.57;;;6.95;;
44248;SDS011;29923;48.718;9.272;2023-06-14T04:42:03;18.10;;;6.68;;
44248;SDS011;29923;48.718;9.272;2023-06-14T04:44:29;10.50;;;6.55;;
44248;SDS011;29923;48.718;9.272;2023-06-14T04:46:57;11.30;;;6.88;;
44248;SDS011;29923;48.718;9.272;2023-06-14T04:49:23;9.65;;;6.60;;
44248;SDS011;29923;48.718;9.272;2023-06-14T04:51:49;11.85;;;6.47;;
44248;SDS011;29923;48.718;9.272;2023-06-14T04:54:22;9.53;;;6.50;;
44248;SDS011;29923;48.718;9.272;2023-06-14T04:56:49;13.05;;;6.53;;
44248;SDS011;29923;48.718;9.272;2023-06-14T04:59:15;12.50;;;6.05;;
44248;SDS011;29923;48.718;9.272;2023-06-14T05:01:42;9.02;;;6.22;;
44248;SDS011;29923;48.718;9.272;2023-06-14T05:04:16;10.32;;;5.72;;
44248;SDS011;29923;48.718;9.272;2023-06-14T05:06:45;13.10;;;6.07;;
44248;SDS011;29923;48.718;9.272;2023-06-14T05:09:14;10.93;;;5.97;;
44248;SDS011;29923;48.718;9.272;2023-06-14T05:11:40;7.40;;;5.28;;
44248;SDS011;29923;48.718;9.272;2023-06-14T05:14:09;10.20;;;5.05;;
44248;SDS011;29923;48.718;9.272;2023-06-14T05:16:35;9.15;;;5.30;;
44248;SDS011;29923;48.718;9.272;2023-06-14T05:19:01;9.75;;;5.80;;
44248;SDS011;29923;48.718;9.272;2023-06-14T05:21:26;11.57;;;5.07;;
44248;SDS011;29923;48.718;9.272;2023-06-14T05:23:51;12.98;;;5.30;;
44248;SDS011;29923;48.718;9.272;2023-06-14T05:26:17;8.43;;;4.60;;
44248;SDS011;29923;48.718;9.272;2023-06-14T05:28:43;7.55;;;4.43;;
44248;SDS011;29923;48.718;9.272;2023-06-14T05:31:09;16.10;;;4.68;;
44248;SDS011;29923;48.718;9.272;2023-06-14T05:33:34;9.88;;;4.40;;
44248;SDS011;29923;48.718;9.272;2023-06-14T05:35:59;10.65;;;4.75;;
44248;SDS011;29923;48.718;9.272;2023-06-14T05:38:25;8.35;;;4.80;;
44248;SDS011;29923;48.718;9.272;2023-06-14T05:40:51;10.75;;;5.13;;
44248;SDS011;29923;48.718;9.272;2023-06-14T05:43:16;14.02;;;5.85;;
44248;SDS011;29923;48.718;9.272;2023-06-14T05:45:42;12.55;;;4.97;;
44248;SDS011;29923;48.718;9.272;2023-06-14T05:48:07;11.75;;;5.15;;
44248;SDS011;29923;48.718;9.272;2023-06-14T05:50:32;15.02;;;9.98;;
44248;SDS011;29923;48.718;9.272;2023-06-14T05:52:58;14.60;;;5.72;;
44248;SDS011;29923;48.718;9.272;2023-06-14T05:55:24;11.48;;;5.55;;
44248;SDS011;29923;48.718;9.272;2023-06-14T05:57:50;12.98;;;5.45;;
44248;SDS011;29923;48.718;9.272;2023-06-14T06:00:15;15.23;;;5.53;;
44248;SDS011;29923;48.718;9.272;2023-06-14T06:02:41;15.65;;;5.75;;
44248;SDS011;29923;48.718;9.272;2023-06-14T06:05:10;16.30;;;6.10;;
44248;SDS011;29923;48.718;9.272;2023-06-14T06:07:36;11.43;;;5.53;;
44248;SDS011;29923;48.718;9.272;2023-06-14T06:10:02;11.88;;;5.70;;
44248;SDS011;29923;48.718;9.272;2023-06-14T06:12:28;9.80;;;4.97;;
44248;SDS011;29923;48.718;9.272;2023-06-14T06:14:53;11.55;;;5.78;;
44248;SDS011;29923;48.718;9.272;2023-06-14T06:17:19;13.82;;;7.47;;
44248;SDS011;29923;48.718;9.272;2023-06-14T06:19:44;20.60;;;6.95;;
44248;SDS011;29923;48.718;9.272;2023-06-14T06:22:09;20.05;;;7.90;;
44248;SDS011;29923;48.718;9.272;2023-06-14T06:24:35;12.80;;;6.55;;
44248;SDS011;29923;48.718;9.272;2023-06-14T06:27:00;17.15;;;6.38;;
44248;SDS011;29923;48.718;9.272;2023-06-14T06:29:26;20.35;;;7.50;;
44248;SDS011;29923;48.718;9.272;2023-06-14T06:31:51;16.63;;;6.82;;
44248;SDS011;29923;48.718;9.272;2023-06-14T06:34:16;16.13;;;6.13;;
44248;SDS011;29923;48.718;9.272;2023-06-14T06:36:42;11.00;;;6.05;;
44248;SDS011;29923;48.718;9.272;2023-06-14T06:39:07;12.55;;;6.03;;
44248;SDS011;29923;48.718;9.272;2023-06-14T06:41:38;15.48;;;4.65;;
44248;SDS011;29923;48.718;9.272;2023-06-14T06:44:05;12.80;;;5.28;;
44248;SDS011;29923;48.718;9.272;2023-06-14T06:46:31;8.52;;;4.43;;
44248;SDS011;29923;48.718;9.272;2023-06-14T06:48:57;9.15;;;4.82;;
44248;SDS011;29923;48.718;9.272;2023-06-14T06:51:22;7.65;;;4.05;;
44248;SDS011;29923;48.718;9.272;2023-06-14T06:53:57;10.05;;;4.07;;
44248;SDS011;29923;48.718;9.272;2023-06-14T06:56:22;5.97;;;4.15;;
44248;SDS011;29923;48.718;9.272;2023-06-14T06:58:49;8.32;;;4.28;;
44248;SDS011;29923;48.718;9.272;2023-06-14T07:01:15;11.27;;;4.03;;
44248;SDS011;29923;48.718;9.272;2023-06-14T07:03:41;6.63;;;4.32;;
44248;SDS011;29923;48.718;9.272;2023-06-14T07:06:06;7.00;;;4.30;;
44248;SDS011;29923;48.718;9.272;2023-06-14T07:08:31;7.75;;;4.32;;
44248;SDS011;29923;48.718;9.272;2023-06-14T07:10:57;9.68;;;4.10;;
44248;SDS011;29923;48.718;9.272;2023-06-14T07:13:22;9.05;;;4.50;;
44248;SDS011;29923;48.718;9.272;2023-06-14T07:15:47;9.60;;;4.18;;
44248;SDS011;29923;48.718;9.272;2023-06-14T07:18:13;11.77;;;4.30;;
44248;SDS011;29923;48.718;9.272;2023-06-14T07:20:38;6.97;;;4.18;;
44248;SDS011;29923;48.718;9.272;2023-06-14T07:23:03;14.18;;;4.35;;
44248;SDS011;29923;48.718;9.272;2023-06-14T07:25:30;8.95;;;6.60;;
44248;SDS011;29923;48.718;9.272;2023-06-14T07:27:55;10.75;;;4.15;;
44248;SDS011;29923;48.718;9.272;2023-06-14T07:30:21;11.95;;;4.15;;
44248;SDS011;29923;48.718;9.272;2023-06-14T07:32:50;9.38;;;3.83;;
44248;SDS011;29923;48.718;9.272;2023-06-14T07:35:17;7.57;;;4.10;;
44248;SDS011;29923;48.718;9.272;2023-06-14T07:37:42;13.43;;;4.30;;
44248;SDS011;29923;48.718;9.272;2023-06-14T07:40:08;12.48;;;4.15;;
44248;SDS011;29923;48.718;9.272;2023-06-14T07:42:35;6.85;;;4.18;;
44248;SDS011;29923;48.718;9.272;2023-06-14T07:45:01;14.60;;;3.83;;
44248;SDS011;29923;48.718;9.272;2023-06-14T07:47:27;7.28;;;3.45;;
44248;SDS011;29923;48.718;9.272;2023-06-14T07:49:52;7.90;;;3.63;;
44248;SDS011;29923;48.718;9.272;2023-06-14T07:52:17;7.65;;;3.63;;
44248;SDS011;29923;48.718;9.272;2023-06-14T07:54:43;5.97;;;3.53;;
44248;SDS011;29923;48.718;9.272;2023-06-14T07:57:08;7.97;;;4.03;;
44248;SDS011;29923;48.718;9.272;2023-06-14T07:59:34;9.35;;;4.10;;
44248;SDS011;29923;48.718;9.272;2023-06-14T08:02:00;6.60;;;4.00;;
44248;SDS011;29923;48.718;9.272;2023-06-14T08:04:25;9.32;;;3.55;;
44248;SDS011;29923;48.718;9.272;2023-06-14T08:06:51;7.15;;;3.53;;
44248;SDS011;29923;48.718;9.272;2023-06-14T08:09:16;6.80;;;3.75;;
44248;SDS011;29923;48.718;9.272;2023-06-14T08:11:41;6.28;;;3.45;;
44248;SDS011;29923;48.718;9.272;2023-06-14T08:14:07;9.00;;;3.97;;
44248;SDS011;29923;48.718;9.272;2023-06-14T08:16:33;8.68;;;4.10;;
44248;SDS011;29923;48.718;9.272;2023-06-14T08:18:58;10.63;;;3.92;;
44248;SDS011;29923;48.718;9.272;2023-06-14T08:21:23;9.02;;;4.22;;
44248;SDS011;29923;48.718;9.272;2023-06-14T08:23:49;13.15;;;4.00;;
44248;SDS011;29923;48.718;9.272;2023-06-14T08:26:17;5.85;;;3.88;;
44248;SDS011;29923;48.718;9.272;2023-06-14T08:28:43;10.32;;;4.18;;
44248;SDS011;29923;48.718;9.272;2023-06-14T08:31:08;7.60;;;4.35;;
44248;SDS011;29923;48.718;9.272;2023-06-14T08:33:34;12.23;;;3.85;;
44248;SDS011;29923;48.718;9.272;2023-06-14T08:35:59;9.73;;;3.88;;
44248;SDS011;29923;48.718;9.272;2023-06-14T08:38:24;8.80;;;4.05;;
44248;SDS011;29923;48.718;9.272;2023-06-14T08:40:50;6.03;;;3.97;;
44248;SDS011;29923;48.718;9.272;2023-06-14T08:43:16;9.18;;;3.92;;
44248;SDS011;29923;48.718;9.272;2023-06-14T08:45:41;8.57;;;4.00;;
44248;SDS011;29923;48.718;9.272;2023-06-14T08:48:07;8.02;;;5.35;;
44248;SDS011;29923;48.718;9.272;2023-06-14T08:50:33;9.43;;;4.20;;
44248;SDS011;29923;48.718;9.272;2023-06-14T08:53:00;6.32;;;3.72;;
44248;SDS011;29923;48.718;9.272;2023-06-14T08:55:27;7.90;;;3.72;;
44248;SDS011;29923;48.718;9.272;2023-06-14T08:57:54;8.43;;;3.78;;
44248;SDS011;29923;48.718;9.272;2023-06-14T09:00:21;10.23;;;3.85;;
44248;SDS011;29923;48.718;9.272;2023-06-14T09:02:47;8.23;;;3.67;;
44248;SDS011;29923;48.718;9.272;2023-06-14T09:05:13;7.53;;;3.92;;
44248;SDS011;29923;48.718;9.272;2023-06-14T09:07:41;5.95;;;4.40;;
44248;SDS011;29923;48.718;9.272;2023-06-14T09:10:10;10.00;;;4.00;;
44248;SDS011;29923;48.718;9.272;2023-06-14T09:12:37;8.05;;;3.85;;
44248;SDS011;29923;48.718;9.272;2023-06-14T09:15:03;7.53;;;4.00;;
44248;SDS011;29923;48.718;9.272;2023-06-14T09:17:36;14.70;;;4.03;;
44248;SDS011;29923;48.718;9.272;2023-06-14T09:20:05;7.53;;;3.38;;
44248;SDS011;29923;48.718;9.272;2023-06-14T09:22:32;6.88;;;3.67;;
44248;SDS011;29923;48.718;9.272;2023-06-14T09:24:57;8.27;;;3.60;;
44248;SDS011;29923;48.718;9.272;2023-06-14T09:27:25;16.40;;;4.32;;
44248;SDS011;29923;48.718;9.272;2023-06-14T09:29:51;9.80;;;4.40;;
44248;SDS011;29923;48.718;9.272;2023-06-14T09:32:16;7.85;;;3.63;;
44248;SDS011;29923;48.718;9.272;2023-06-14T09:34:42;7.45;;;3.42;;
44248;SDS011;29923;48.718;9.272;2023-06-14T09:37:07;8.77;;;3.65;;
44248;SDS011;29923;48.718;9.272;2023-06-14T09:39:32;5.63;;;3.78;;
44248;SDS011;29923;48.718;9.272;2023-06-14T09:41:58;6.22;;;4.00;;
44248;SDS011;29923;48.718;9.272;2023-06-14T09:44:23;7.75;;;4.00;;
44248;SDS011;29923;48.718;9.272;2023-06-14T09:46:53;9.25;;;3.55;;
44248;SDS011;29923;48.718;9.272;2023-06-14T09:49:20;28.95;;;4.28;;
44248;SDS011;29923;48.718;9.272;2023-06-14T09:51:46;8.48;;;3.67;;
44248;SDS011;29923;48.718;9.272;2023-06-14T09:54:16;11.32;;;3.88;;
44248;SDS011;29923;48.718;9.272;2023-06-14T09:56:46;9.90;;;3.45;;
44248;SDS011;29923;48.718;9.272;2023-06-14T09:59:12;11.18;;;3.50;;
44248;SDS011;29923;48.718;9.272;2023-06-14T10:01:41;7.88;;;3.60;;
44248;SDS011;29923;48.718;9.272;2023-06-14T10:04:07;9.98;;;3.10;;
44248;SDS011;29923;48.718;9.272;2023-06-14T10:06:36;8.32;;;3.35;;
44248;SDS011;29923;48.718;9.272;2023-06-14T10:09:03;9.65;;;3.70;;
44248;SDS011;29923;48.718;9.272;2023-06-14T10:11:30;13.32;;;3.50;;
44248;SDS011;29923;48.718;9.272;2023-06-14T10:13:56;8.23;;;3.40;;
44248;SDS011;29923;48.718;9.272;2023-06-14T10:19:00;7.75;;;3.85;;
44248;SDS011;29923;48.718;9.272;2023-06-14T10:21:37;10.65;;;3.38;;
44248;SDS011;29923;48.718;9.272;2023-06-14T10:24:09;7.32;;;3.28;;
44248;SDS011;29923;48.718;9.272;2023-06-14T10:26:39;6.82;;;3.63;;
44248;SDS011;29923;48.718;9.272;2023-06-14T10:29:18;7.93;;;3.28;;
44248;SDS011;29923;48.718;9.272;2023-06-14T10:31:45;9.55;;;4.00;;
44248;SDS011;29923;48.718;9.272;2023-06-14T10:34:12;5.57;;;3.17;;
44248;SDS011;29923;48.718;9.272;2023-06-14T10:36:40;7.82;;;3.55;;
44248;SDS011;29923;48.718;9.272;2023-06-14T10:39:08;19.20;;;4.20;;
44248;SDS011;29923;48.718;9.272;2023-06-14T10:41:38;8.18;;;3.65;;
44248;SDS011;29923;48.718;9.272;2023-06-14T10:44:10;7.20;;;3.92;;
44248;SDS011;29923;48.718;9.272;2023-06-14T10:46:58;4.78;;;3.42;;
44248;SDS011;29923;48.718;9.272;2023-06-14T10:52:10;10.80;;;3.50;;
44248;SDS011;29923;48.718;9.272;2023-06-14T10:57:24;7.38;;;3.50;;
44248;SDS011;29923;48.718;9.272;2023-06-14T10:59:50;13.63;;;3.83;;
44248;SDS011;29923;48.718;9.272;2023-06-14T11:04:50;11.15;;;3.90;;
44248;SDS011;29923;48.718;9.272;2023-06-14T11:12:41;8.73;;;3.70;;
44248;SDS011;29923;48.718;9.272;2023-06-14T11:15:07;7.85;;;3.72;;
44248;SDS011;29923;48.718;9.272;2023-06-14T11:17:33;33.78;;;13.07;;
44248;SDS011;29923;48.718;9.272;2023-06-14T11:20:08;10.02;;;3.70;;
44248;SDS011;29923;48.718;9.272;2023-06-14T11:22:43;7.57;;;3.50;;
44248;SDS011;29923;48.718;9.272;2023-06-14T11:25:09;5.93;;;3.33;;
44248;SDS011;29923;48.718;9.272;2023-06-14T11:27:36;7.82;;;3.40;;
44248;SDS011;29923;48.718;9.272;2023-06-14T11:30:01;9.60;;;3.28;;
44248;SDS011;29923;48.718;9.272;2023-06-14T11:32:27;11.45;;;4.13;;
44248;SDS011;29923;48.718;9.272;2023-06-14T11:34:52;8.23;;;3.42;;
44248;SDS011;29923;48.718;9.272;2023-06-14T11:37:18;6.28;;;3.38;;
44248;SDS011;29923;48.718;9.272;2023-06-14T11:39:44;8.23;;;3.33;;
44248;SDS011;29923;48.718;9.272;2023-06-14T11:42:13;5.68;;;3.47;;
44248;SDS011;29923;48.718;9.272;2023-06-14T11:44:40;6.90;;;3.45;;
44248;SDS011;29923;48.718;9.272;2023-06-14T11:47:05;7.32;;;3.33;;
44248;SDS011;29923;48.718;9.272;2023-06-14T11:49:34;9.75;;;3.10;;
44248;SDS011;29923;48.718;9.272;2023-06-14T11:52:01;6.10;;;3.35;;
44248;SDS011;29923;48.718;9.272;2023-06-14T11:54:26;8.93;;;3.35;;
44248;SDS011;29923;48.718;9.272;2023-06-14T11:56:52;5.85;;;2.90;;
44248;SDS011;29923;48.718;9.272;2023-06-14T11:59:17;11.48;;;5.32;;
44248;SDS011;29923;48.718;9.272;2023-06-14T12:01:42;9.85;;;3.42;;
44248;SDS011;29923;48.718;9.272;2023-06-14T12:04:08;6.45;;;2.88;;
44248;SDS011;29923;48.718;9.272;2023-06-14T12:06:34;6.57;;;3.80;;
44248;SDS011;29923;48.718;9.272;2023-06-14T12:09:04;7.32;;;3.03;;
44248;SDS011;29923;48.718;9.272;2023-06-14T12:11:32;11.10;;;3.17;;
44248;SDS011;29923;48.718;9.272;2023-06-14T12:13:58;9.90;;;3.53;;
44248;SDS011;29923;48.718;9.272;2023-06-14T12:16:29;11.52;;;3.20;;
44248;SDS011;29923;48.718;9.272;2023-06-14T12:18:56;8.55;;;3.20;;
44248;SDS011;29923;48.718;9.272;2023-06-14T12:21:25;9.20;;;3.53;;
44248;SDS011;29923;48.718;9.272;2023-06-14T12:23:53;12.38;;;3.63;;
44248;SDS011;29923;48.718;9.272;2023-06-14T12:26:19;9.98;;;3.00;;
44248;SDS011;29923;48.718;9.272;2023-06-14T12:28:45;4.63;;;3.13;;
44248;SDS011;29923;48.718;9.272;2023-06-14T12:31:11;7.97;;;2.83;;
44248;SDS011;29923;48.718;9.272;2023-06-14T12:33:38;5.53;;;3.30;;
44248;SDS011;29923;48.718;9.272;2023-06-14T12:36:04;6.93;;;3.28;;
44248;SDS011;29923;48.718;9.272;2023-06-14T12:38:30;5.57;;;3.40;;
44248;SDS011;29923;48.718;9.272;2023-06-14T12:40:56;7.38;;;3.45;;
44248;SDS011;29923;48.718;9.272;2023-06-14T12:43:22;10.80;;;3.72;;
44248;SDS011;29923;48.718;9.272;2023-06-14T12:45:48;4.63;;;3.50;;
44248;SDS011;29923;48.718;9.272;2023-06-14T12:48:13;7.13;;;3.28;;
44248;SDS011;29923;48.718;9.272;2023-06-14T12:50:38;7.75;;;3.45;;
44248;SDS011;29923;48.718;9.272;2023-06-14T12:53:04;8.45;;;2.90;;
44248;SDS011;29923;48.718;9.272;2023-06-14T12:55:29;11.07;;;3.22;;
44248;SDS011;29923;48.718;9.272;2023-06-14T12:57:55;9.80;;;3.17;;
44248;SDS011;29923;48.718;9.272;2023-06-14T13:00:20;11.13;;;3.50;;
44248;SDS011;29923;48.718;9.272;2023-06-14T13:02:46;6.07;;;2.88;;
44248;SDS011;29923;48.718;9.272;2023-06-14T13:05:12;4.68;;;3.00;;
44248;SDS011;29923;48.718;9.272;2023-06-14T13:07:37;10.68;;;4.78;;
44248;SDS011;29923;48.718;9.272;2023-06-14T13:10:03;11.25;;;2.67;;
44248;SDS011;29923;48.718;9.272;2023-06-14T13:12:29;7.05;;;3.22;;
44248;SDS011;29923;48.718;9.272;2023-06-14T13:14:54;5.75;;;3.63;;
44248;SDS011;29923;48.718;9.272;2023-06-14T13:17:19;5.78;;;2.90;;
44248;SDS011;29923;48.718;9.272;2023-06-14T13:19:45;20.77;;;3.75;;
44248;SDS011;29923;48.718;9.272;2023-06-14T13:22:10;5.82;;;3.08;;
44248;SDS011;29923;48.718;9.272;2023-06-14T13:24:36;6.10;;;3.17;;
44248;SDS011;29923;48.718;9.272;2023-06-14T13:27:01;6.88;;;2.92;;
44248;SDS011;29923;48.718;9.272;2023-06-14T13:29:27;5.70;;;3.22;;
44248;SDS011;29923;48.718;9.272;2023-06-14T13:31:52;8.43;;;2.88;;
44248;SDS011;29923;48.718;9.272;2023-06-14T13:34:18;6.57;;;2.80;;
44248;SDS011;29923;48.718;9.272;2023-06-14T13:36:44;9.20;;;3.28;;
44248;SDS011;29923;48.718;9.272;2023-06-14T13:39:09;10.55;;;2.80;;
44248;SDS011;29923;48.718;9.272;2023-06-14T13:41:35;6.40;;;3.00;;
44248;SDS011;29923;48.718;9.272;2023-06-14T13:44:01;9.75;;;4.28;;
44248;SDS011;29923;48.718;9.272;2023-06-14T13:46:29;6.85;;;3.30;;
44248;SDS011;29923;48.718;9.272;2023-06-14T13:48:54;6.32;;;3.10;;
44248;SDS011;29923;48.718;9.272;2023-06-14T13:51:20;6.05;;;3.13;;
44248;SDS011;29923;48.718;9.272;2023-06-14T13:53:46;6.60;;;3.10;;
44248;SDS011;29923;48.718;9.272;2023-06-14T13:56:12;5.43;;;3.13;;
44248;SDS011;29923;48.718;9.272;2023-06-14T13:58:38;7.80;;;3.30;;
44248;SDS011;29923;48.718;9.272;2023-06-14T14:01:03;5.07;;;3.35;;
44248;SDS011;29923;48.718;9.272;2023-06-14T14:03:28;10.98;;;3.55;;
44248;SDS011;29923;48.718;9.272;2023-06-14T14:05:54;7.03;;;3.67;;
44248;SDS011;29923;48.718;9.272;2023-06-14T14:08:19;4.68;;;3.75;;
44248;SDS011;29923;48.718;9.272;2023-06-14T14:10:44;8.90;;;2.90;;
44248;SDS011;29923;48.718;9.272;2023-06-14T14:13:10;7.40;;;2.83;;
44248;SDS011;29923;48.718;9.272;2023-06-14T14:15:37;8.07;;;3.10;;
44248;SDS011;29923;48.718;9.272;2023-06-14T14:18:03;8.60;;;3.22;;
44248;SDS011;29923;48.718;9.272;2023-06-14T14:20:29;5.05;;;3.13;;
44248;SDS011;29923;48.718;9.272;2023-06-14T14:22:55;8.40;;;3.05;;
44248;SDS011;29923;48.718;9.272;2023-06-14T14:25:21;5.93;;;3.17;;
44248;SDS011;29923;48.718;9.272;2023-06-14T14:27:46;11.88;;;3.20;;
44248;SDS011;29923;48.718;9.272;2023-06-14T14:30:12;6.88;;;3.20;;
44248;SDS011;29923;48.718;9.272;2023-06-14T14:32:39;5.45;;;2.90;;
44248;SDS011;29923;48.718;9.272;2023-06-14T14:35:04;12.35;;;3.53;;
44248;SDS011;29923;48.718;9.272;2023-06-14T14:37:31;3.95;;;2.83;;
44248;SDS011;29923;48.718;9.272;2023-06-14T14:39:56;9.02;;;3.30;;
44248;SDS011;29923;48.718;9.272;2023-06-14T14:42:21;7.20;;;2.95;;
44248;SDS011;29923;48.718;9.272;2023-06-14T14:44:47;9.32;;;3.15;;
44248;SDS011;29923;48.718;9.272;2023-06-14T14:47:12;11.23;;;3.00;;
44248;SDS011;29923;48.718;9.272;2023-06-14T14:49:37;5.07;;;3.05;;
44248;SDS011;29923;48.718;9.272;2023-06-14T14:52:03;6.05;;;3.00;;
44248;SDS011;29923;48.718;9.272;2023-06-14T14:54:28;6.57;;;2.90;;